Gladstone, Oregon
Current Conditions -  °F | °C
As of 9:53 PM on Friday 28 Nov 2014 (Local Time) from KUAO Reporting Station
Overcast Overcast  
Wind Chill: 46°   Ceiling: 3900
Heat Index: 46°   Visibility: 10mi
Dew Point: 42°   Wind: 0mph
Humidity: 86%   Direction: NA
Pressure: 29.62"   Gusts: NA
Location:  45.38°N, 122.59°W
Report Text: KUAO 290553Z AUTO 00000KT 10SM FEW020 BKN039 OVC048 08/06 A2962 RMK AO2 SLP029 60027 T00780056 10128 20078 51022
Loading
Personal Weather Stations






























Interactive Weather Map New forecast layout! Learn more

10-Day Weather Forecast

Advertisements
Track Severe Weather on mobile